createdAt,value
2018-12-27T00:00:43.239Z,12.60
2018-12-27T00:03:09.577Z,12.40
2018-12-27T00:05:36.011Z,12.44
2018-12-27T00:08:02.335Z,12.46
2018-12-27T00:10:28.703Z,12.41
2018-12-27T00:12:55.099Z,12.68
2018-12-27T00:15:21.124Z,12.67
2018-12-27T00:17:47.206Z,12.74
2018-12-27T00:20:13.317Z,12.59
2018-12-27T00:22:39.399Z,12.55
2018-12-27T00:25:05.436Z,12.58
2018-12-27T00:27:31.793Z,12.58
2018-12-27T00:29:58.194Z,12.62
2018-12-27T00:32:24.197Z,12.40
2018-12-27T00:34:50.234Z,12.41
2018-12-27T00:37:16.885Z,12.34
2018-12-27T00:39:42.912Z,12.32
2018-12-27T00:42:08.924Z,12.29
2018-12-27T00:44:34.928Z,12.42
2018-12-27T00:47:01.070Z,12.49
2018-12-27T00:49:27.513Z,12.37
2018-12-27T00:51:53.548Z,12.36
2018-12-27T00:54:19.639Z,12.17
2018-12-27T00:56:45.658Z,12.26
2018-12-27T00:59:12.232Z,12.30
2018-12-27T01:01:38.235Z,12.44
2018-12-27T01:04:04.598Z,12.35
2018-12-27T01:06:30.697Z,12.42
2018-12-27T01:08:57.031Z,12.35
2018-12-27T01:11:23.092Z,12.53
2018-12-27T01:13:49.936Z,12.43
2018-12-27T01:16:16.341Z,12.43
2018-12-27T01:18:42.774Z,12.39
2018-12-27T01:21:08.797Z,12.45
2018-12-27T01:23:35.246Z,12.27
2018-12-27T01:26:01.345Z,12.36
2018-12-27T01:28:27.705Z,12.45
2018-12-27T01:30:54.011Z,12.52
2018-12-27T01:33:20.029Z,12.55
2018-12-27T01:35:46.125Z,12.55
2018-12-27T01:38:12.143Z,12.53
2018-12-27T01:40:38.628Z,12.50
2018-12-27T01:43:04.953Z,12.47
2018-12-27T01:45:30.979Z,12.60
2018-12-27T01:47:57.045Z,12.65
2018-12-27T01:50:23.433Z,12.64
2018-12-27T01:52:49.781Z,12.73
2018-12-27T01:55:16.202Z,12.61
2018-12-27T01:57:42.220Z,12.55
2018-12-27T02:00:08.730Z,12.63
2018-12-27T02:02:34.803Z,12.63
2018-12-27T02:05:00.873Z,12.61
2018-12-27T02:07:27.242Z,12.61
2018-12-27T02:09:53.288Z,12.61
2018-12-27T02:12:19.360Z,12.63
2018-12-27T02:14:45.738Z,12.65
2018-12-27T02:17:11.808Z,12.66
2018-12-27T02:19:38.071Z,12.65
2018-12-27T02:22:04.120Z,12.59
2018-12-27T02:24:30.191Z,12.67
2018-12-27T02:26:56.568Z,12.61
2018-12-27T02:29:23.002Z,12.70
2018-12-27T02:31:49.133Z,12.62
2018-12-27T02:34:15.201Z,12.64
2018-12-27T02:36:41.244Z,12.66
2018-12-27T02:39:07.347Z,12.78
2018-12-27T02:41:33.735Z,12.69
2018-12-27T02:44:00.069Z,12.67
2018-12-27T02:46:26.180Z,12.87
2018-12-27T02:48:52.196Z,12.76
2018-12-27T02:51:18.655Z,12.65
2018-12-27T02:53:44.985Z,12.70
2018-12-27T02:56:11.015Z,12.61
2018-12-27T02:58:37.443Z,12.70
2018-12-27T03:01:03.884Z,12.64
2018-12-27T03:03:30.194Z,12.66
2018-12-27T03:05:56.245Z,12.43
2018-12-27T03:08:22.335Z,12.56
2018-12-27T03:10:48.423Z,12.79
2018-12-27T03:13:14.552Z,12.82
2018-12-27T03:15:40.650Z,12.83
2018-12-27T03:18:06.654Z,12.60
2018-12-27T03:20:33.009Z,12.49
2018-12-27T03:23:01.401Z,12.65
2018-12-27T03:25:29.008Z,12.74
2018-12-27T03:27:55.011Z,12.66
2018-12-27T03:30:21.156Z,12.61
2018-12-27T03:32:51.389Z,12.68
2018-12-27T03:35:17.423Z,12.63
2018-12-27T03:37:43.866Z,12.65
2018-12-27T03:40:13.030Z,12.79
2018-12-27T03:42:39.394Z,12.82
2018-12-27T03:45:05.461Z,12.86
2018-12-27T03:47:31.755Z,12.72
2018-12-27T03:49:58.699Z,12.62
2018-12-27T03:52:24.786Z,12.69
2018-12-27T03:54:50.879Z,12.75
2018-12-27T03:57:17.303Z,12.72
2018-12-27T03:59:52.267Z,12.78
2018-12-27T04:02:18.612Z,12.77
2018-12-27T04:04:44.804Z,12.74
2018-12-27T04:07:11.206Z,12.80
2018-12-27T04:09:37.201Z,12.74
2018-12-27T04:12:03.571Z,12.79
2018-12-27T04:14:29.649Z,12.83
2018-12-27T04:16:55.649Z,12.84
2018-12-27T04:19:21.775Z,12.90
2018-12-27T04:21:48.170Z,12.94
2018-12-27T04:24:14.200Z,12.82
2018-12-27T04:26:40.631Z,12.83
2018-12-27T04:29:06.739Z,12.83
2018-12-27T04:31:32.755Z,12.80
2018-12-27T04:33:58.834Z,12.74
2018-12-27T04:36:24.967Z,12.77
2018-12-27T04:38:51.040Z,12.72
2018-12-27T04:41:17.086Z,12.45
2018-12-27T04:43:43.180Z,12.37
2018-12-27T04:46:09.250Z,12.63
2018-12-27T04:48:35.287Z,12.74
2018-12-27T04:51:01.367Z,12.87
2018-12-27T04:53:27.462Z,12.83
2018-12-27T04:55:53.553Z,12.94
2018-12-27T04:58:19.861Z,12.96
2018-12-27T05:00:46.410Z,13.00
2018-12-27T05:03:12.498Z,12.73
2018-12-27T05:05:38.502Z,12.48
2018-12-27T05:08:05.094Z,12.34
2018-12-27T05:10:31.165Z,12.66
2018-12-27T05:12:57.186Z,12.65
2018-12-27T05:15:23.571Z,12.86
2018-12-27T05:17:49.593Z,12.89
2018-12-27T05:20:15.629Z,12.97
2018-12-27T05:22:41.734Z,12.92
2018-12-27T05:25:07.759Z,12.97
2018-12-27T05:27:33.774Z,12.94
2018-12-27T05:30:00.170Z,12.89
2018-12-27T05:32:26.962Z,12.90
2018-12-27T05:34:53.489Z,12.91
2018-12-27T05:37:19.521Z,12.91
2018-12-27T05:39:45.606Z,12.96
2018-12-27T05:42:12.291Z,12.87
2018-12-27T05:44:38.724Z,12.81
2018-12-27T05:47:05.033Z,12.85
2018-12-27T05:49:31.065Z,12.96
2018-12-27T05:51:57.146Z,12.90
2018-12-27T05:54:23.167Z,13.01
2018-12-27T05:56:49.252Z,12.94
2018-12-27T05:59:15.344Z,13.04
2018-12-27T06:01:41.369Z,12.91
2018-12-27T06:04:07.835Z,13.05
2018-12-27T06:06:33.864Z,13.13
2018-12-27T06:09:00.441Z,13.12
2018-12-27T06:11:26.541Z,13.11
2018-12-27T06:13:53.092Z,13.08
2018-12-27T06:16:19.155Z,13.01
2018-12-27T06:18:45.195Z,13.12
2018-12-27T06:21:11.548Z,13.08
2018-12-27T06:23:37.858Z,12.95
2018-12-27T06:26:03.873Z,13.07
2018-12-27T06:28:29.887Z,12.93
2018-12-27T06:30:55.946Z,13.05
2018-12-27T06:33:22.060Z,13.02
2018-12-27T06:35:48.526Z,13.07
2018-12-27T06:38:14.653Z,13.01
2018-12-27T06:40:40.723Z,13.11
2018-12-27T06:43:06.751Z,12.99
2018-12-27T06:45:32.854Z,13.03
2018-12-27T06:47:59.248Z,13.06
2018-12-27T06:50:25.666Z,12.82
2018-12-27T06:52:51.936Z,12.88
2018-12-27T06:55:17.987Z,12.78
2018-12-27T06:57:44.349Z,12.88
2018-12-27T07:00:10.449Z,12.79
2018-12-27T07:02:36.541Z,12.96
2018-12-27T07:05:02.546Z,12.92
2018-12-27T07:07:30.102Z,12.86
2018-12-27T07:09:56.184Z,12.92
2018-12-27T07:12:22.554Z,13.08
2018-12-27T07:14:48.656Z,13.18
2018-12-27T07:17:15.013Z,13.04
2018-12-27T07:19:41.155Z,13.10
2018-12-27T07:22:07.261Z,13.04
2018-12-27T07:24:33.345Z,13.14
2018-12-27T07:26:59.427Z,13.25
2018-12-27T07:29:25.450Z,13.29
2018-12-27T07:31:51.463Z,13.13
2018-12-27T07:34:17.575Z,13.15
2018-12-27T07:36:43.686Z,13.10
2018-12-27T07:39:10.138Z,13.20
2018-12-27T07:41:36.191Z,13.24
2018-12-27T07:44:02.255Z,13.29
2018-12-27T07:46:28.342Z,13.28
2018-12-27T07:48:54.458Z,13.13
2018-12-27T07:51:20.566Z,13.12
2018-12-27T07:53:46.636Z,13.20
2018-12-27T07:56:12.931Z,13.22
2018-12-27T07:58:39.030Z,13.29
2018-12-27T08:01:05.393Z,13.21
2018-12-27T08:03:31.821Z,13.32
2018-12-27T08:05:58.247Z,13.50
2018-12-27T08:08:24.579Z,13.63
2018-12-27T08:10:51.009Z,13.81
2018-12-27T08:13:17.357Z,13.80
2018-12-27T08:15:43.467Z,13.79
2018-12-27T08:18:10.643Z,13.98
2018-12-27T08:23:09.473Z,14.23
2018-12-27T08:25:35.561Z,14.14
2018-12-27T08:28:01.654Z,14.09
2018-12-27T08:30:29.279Z,14.06
2018-12-27T08:32:55.984Z,14.05
2018-12-27T08:35:22.125Z,14.05
2018-12-27T08:37:48.545Z,13.99
2018-12-27T08:40:14.753Z,13.96
2018-12-27T08:42:40.784Z,13.97
2018-12-27T08:45:07.158Z,14.08
2018-12-27T08:47:33.773Z,14.18
2018-12-27T08:50:01.867Z,14.17
2018-12-27T08:52:27.617Z,14.12
2018-12-27T08:54:53.717Z,14.08
2018-12-27T08:57:19.813Z,14.08
2018-12-27T08:59:46.751Z,14.09
2018-12-27T09:02:12.858Z,14.29
2018-12-27T09:04:39.261Z,14.48
2018-12-27T09:07:05.333Z,14.78
2018-12-27T09:09:31.430Z,14.71
2018-12-27T09:11:57.635Z,14.37
2018-12-27T09:14:25.902Z,14.28
2018-12-27T09:16:52.079Z,14.27
2018-12-27T09:19:18.479Z,14.49
2018-12-27T09:21:45.047Z,14.71
2018-12-27T09:24:11.463Z,14.68
2018-12-27T09:26:39.696Z,14.66
2018-12-27T09:29:05.828Z,14.79
2018-12-27T09:31:31.936Z,14.65
2018-12-27T09:33:58.064Z,14.79
2018-12-27T09:36:26.997Z,14.75
2018-12-27T09:38:54.615Z,14.91
2018-12-27T09:41:22.036Z,14.69
2018-12-27T09:43:48.240Z,14.78
2018-12-27T09:46:14.674Z,14.84
2018-12-27T09:48:41.224Z,14.98
2018-12-27T09:51:07.593Z,14.91
2018-12-27T09:53:34.005Z,15.04
2018-12-27T09:56:00.090Z,14.99
2018-12-27T09:58:26.164Z,14.92
2018-12-27T10:00:55.890Z,14.93
2018-12-27T10:03:22.285Z,15.06
2018-12-27T10:05:48.398Z,15.08
2018-12-27T10:08:15.771Z,14.96
2018-12-27T10:10:41.937Z,14.88
2018-12-27T10:13:08.342Z,15.09
2018-12-27T10:15:34.503Z,15.23
2018-12-27T10:18:00.642Z,15.24
2018-12-27T10:20:26.992Z,15.12
2018-12-27T10:22:55.133Z,15.02
2018-12-27T10:25:21.210Z,15.10
2018-12-27T10:27:48.838Z,15.10
2018-12-27T10:30:14.937Z,14.82
2018-12-27T10:32:41.002Z,15.19
2018-12-27T10:35:07.014Z,15.06
2018-12-27T10:37:37.233Z,15.20
2018-12-27T10:40:03.266Z,15.24
2018-12-27T10:42:29.363Z,15.17
2018-12-27T10:44:55.436Z,14.97
2018-12-27T10:47:21.528Z,14.88
2018-12-27T10:49:47.539Z,14.94
2018-12-27T10:55:11.934Z,14.84
2018-12-27T10:57:38.396Z,14.61
2018-12-27T11:00:04.552Z,14.62
2018-12-27T11:02:31.040Z,14.98
2018-12-27T11:04:57.564Z,15.05
2018-12-27T11:07:23.618Z,15.06
2018-12-27T11:09:51.901Z,15.17
2018-12-27T11:12:17.697Z,15.01
2018-12-27T11:14:44.538Z,15.08
2018-12-27T11:17:11.008Z,15.22
2018-12-27T11:19:37.301Z,15.08
2018-12-27T11:22:05.821Z,15.03
2018-12-27T11:24:31.819Z,15.05
2018-12-27T11:26:59.960Z,14.93
2018-12-27T11:29:26.053Z,14.95
2018-12-27T11:31:52.125Z,14.89
2018-12-27T11:34:18.211Z,14.81
2018-12-27T11:36:44.300Z,14.88
2018-12-27T11:39:10.713Z,14.90
2018-12-27T11:41:36.732Z,14.90
2018-12-27T11:44:02.800Z,15.06
2018-12-27T11:46:28.839Z,15.20
2018-12-27T11:48:54.857Z,15.22
2018-12-27T11:51:20.879Z,15.13
2018-12-27T11:53:46.893Z,14.91
2018-12-27T11:56:12.938Z,14.84
2018-12-27T11:58:39.432Z,14.88
2018-12-27T12:01:05.813Z,14.89
2018-12-27T12:03:31.892Z,14.97
2018-12-27T12:06:03.205Z,14.98
2018-12-27T12:08:25.752Z,14.83
2018-12-27T12:10:52.094Z,14.94
2018-12-27T12:13:18.789Z,15.15
2018-12-27T12:15:45.125Z,14.88
2018-12-27T12:18:11.231Z,15.08
2018-12-27T12:20:37.371Z,15.21
2018-12-27T12:23:03.446Z,15.04
2018-12-27T12:25:29.485Z,14.91
2018-12-27T12:27:55.895Z,15.07
2018-12-27T12:30:21.927Z,15.32
2018-12-27T12:32:49.487Z,15.06
2018-12-27T12:35:15.902Z,14.73
2018-12-27T12:37:42.271Z,14.94
2018-12-27T12:40:11.439Z,14.85
2018-12-27T12:42:37.627Z,14.85
2018-12-27T12:45:03.961Z,15.04
2018-12-27T12:47:29.990Z,15.17
2018-12-27T12:49:56.385Z,15.20
2018-12-27T12:52:22.478Z,15.27
2018-12-27T12:54:48.832Z,14.96
2018-12-27T12:57:15.261Z,14.68
2018-12-27T12:59:41.725Z,14.86
2018-12-27T13:02:08.170Z,15.04
2018-12-27T13:04:34.222Z,15.00
2018-12-27T13:07:00.321Z,15.10
2018-12-27T13:09:26.426Z,15.01
2018-12-27T13:11:52.806Z,14.90
2018-12-27T13:14:18.837Z,14.94
2018-12-27T13:16:45.193Z,14.65
2018-12-27T13:19:11.363Z,14.64
2018-12-27T13:21:37.729Z,14.93
2018-12-27T13:24:06.641Z,14.81
2018-12-27T13:26:32.987Z,14.65
2018-12-27T13:28:59.000Z,15.08
2018-12-27T13:31:25.088Z,14.65
2018-12-27T13:33:51.133Z,14.40
2018-12-27T13:36:25.196Z,14.34
2018-12-27T13:38:46.589Z,14.35
2018-12-27T13:41:12.664Z,14.35
2018-12-27T13:43:39.061Z,14.41
2018-12-27T13:46:05.146Z,14.43
2018-12-27T13:48:31.809Z,14.33
2018-12-27T13:51:00.602Z,14.30
2018-12-27T13:53:27.145Z,14.39
2018-12-27T13:55:53.569Z,14.61
2018-12-27T13:58:19.747Z,14.48
2018-12-27T14:00:50.467Z,14.59
2018-12-27T14:03:16.538Z,14.59
2018-12-27T14:05:42.889Z,14.51
2018-12-27T14:08:09.460Z,14.54
2018-12-27T14:10:35.545Z,14.54
2018-12-27T14:13:01.983Z,14.40
2018-12-27T14:15:28.083Z,14.43
2018-12-27T14:17:54.443Z,14.39
2018-12-27T14:20:20.485Z,14.43
2018-12-27T14:22:46.570Z,14.53
2018-12-27T14:25:12.709Z,14.39
2018-12-27T14:27:38.814Z,14.27
2018-12-27T14:30:05.203Z,14.21
2018-12-27T14:32:31.302Z,14.23
2018-12-27T14:34:57.749Z,14.19
2018-12-27T14:37:23.848Z,14.27
2018-12-27T14:39:50.190Z,14.15
2018-12-27T14:42:16.228Z,13.98
2018-12-27T14:44:43.262Z,13.96
2018-12-27T14:47:09.297Z,13.97
2018-12-27T14:49:35.414Z,13.86
2018-12-27T14:52:01.844Z,13.85
2018-12-27T14:54:28.112Z,13.83
2018-12-27T14:56:59.425Z,13.76
2018-12-27T14:59:29.939Z,13.62
2018-12-27T15:01:56.056Z,13.59
2018-12-27T15:04:22.443Z,13.53
2018-12-27T15:06:48.890Z,13.66
2018-12-27T15:09:15.014Z,13.48
2018-12-27T15:11:41.088Z,13.61
2018-12-27T15:14:07.222Z,13.56
2018-12-27T15:16:33.696Z,13.62
2018-12-27T15:19:01.013Z,13.59
2018-12-27T15:21:27.578Z,13.47
2018-12-27T15:23:53.823Z,13.62
2018-12-27T15:26:20.327Z,13.58
2018-12-27T15:28:46.994Z,13.37
2018-12-27T15:31:13.166Z,13.47
2018-12-27T15:33:39.226Z,13.29
2018-12-27T15:36:06.856Z,13.31
2018-12-27T15:38:33.244Z,13.32
2018-12-27T15:41:00.698Z,13.30
2018-12-27T15:43:26.764Z,13.31
2018-12-27T15:45:58.692Z,13.25
2018-12-27T15:48:25.297Z,13.31
2018-12-27T15:50:51.495Z,13.30
2018-12-27T15:53:17.889Z,13.32
2018-12-27T15:55:43.970Z,13.25
2018-12-27T15:58:11.353Z,13.32
2018-12-27T16:00:37.810Z,13.30
2018-12-27T16:03:04.378Z,13.31
2018-12-27T16:05:30.908Z,13.29
2018-12-27T16:07:57.302Z,13.24
2018-12-27T16:10:23.824Z,13.26
2018-12-27T16:12:49.914Z,13.21
2018-12-27T16:15:16.041Z,13.17
2018-12-27T16:17:42.936Z,13.21
2018-12-27T16:20:09.994Z,13.12
2018-12-27T16:22:36.106Z,13.06
2018-12-27T16:25:02.292Z,13.12
2018-12-27T16:27:28.646Z,13.20
2018-12-27T16:29:55.068Z,13.12
2018-12-27T16:32:21.466Z,13.19
2018-12-27T16:34:48.126Z,13.18
2018-12-27T16:37:14.255Z,13.16
2018-12-27T16:39:40.353Z,13.19
2018-12-27T16:42:06.904Z,13.10
2018-12-27T16:44:32.961Z,12.92
2018-12-27T16:46:59.101Z,12.98
2018-12-27T16:49:25.228Z,12.85
2018-12-27T16:51:51.322Z,12.79
2018-12-27T16:54:18.315Z,12.96
2018-12-27T16:56:47.427Z,13.06
2018-12-27T16:59:13.072Z,13.01
2018-12-27T17:01:39.513Z,12.99
2018-12-27T17:04:07.381Z,12.98
2018-12-27T17:06:33.583Z,12.85
2018-12-27T17:08:59.728Z,12.75
2018-12-27T17:11:26.061Z,12.62
2018-12-27T17:13:52.461Z,12.82
2018-12-27T17:16:21.623Z,12.76
2018-12-27T17:18:47.983Z,12.65
2018-12-27T17:21:14.097Z,12.67
2018-12-27T17:23:40.534Z,12.61
2018-12-27T17:26:06.878Z,12.83
2018-12-27T17:28:32.975Z,12.81
2018-12-27T17:30:59.298Z,12.87
2018-12-27T17:33:25.605Z,12.95
2018-12-27T17:35:52.005Z,12.98
2018-12-27T17:38:18.122Z,12.94
2018-12-27T17:40:44.253Z,13.16
2018-12-27T17:43:10.383Z,13.08
2018-12-27T17:45:36.764Z,13.26
2018-12-27T17:48:03.219Z,13.21
2018-12-27T17:50:30.695Z,13.22
2018-12-27T17:52:56.974Z,13.12
2018-12-27T17:55:23.247Z,13.16
2018-12-27T17:57:49.557Z,13.15
2018-12-27T18:00:15.926Z,13.15
2018-12-27T18:02:44.348Z,13.21
2018-12-27T18:05:10.692Z,13.26
2018-12-27T18:07:37.493Z,13.16
2018-12-27T18:10:04.155Z,13.19
2018-12-27T18:12:30.229Z,13.18
2018-12-27T18:14:56.608Z,13.18
2018-12-27T18:17:25.090Z,13.13
2018-12-27T18:19:51.489Z,13.16
2018-12-27T18:22:17.568Z,13.14
2018-12-27T18:24:44.001Z,13.25
2018-12-27T18:27:10.022Z,13.21
2018-12-27T18:29:36.182Z,13.11
2018-12-27T18:32:02.519Z,13.08
2018-12-27T18:34:29.092Z,13.09
2018-12-27T18:36:55.305Z,13.10
2018-12-27T18:39:23.750Z,13.08
2018-12-27T18:41:49.874Z,13.08
2018-12-27T18:44:20.657Z,13.14
2018-12-27T18:46:46.856Z,13.20
2018-12-27T18:49:13.015Z,13.26
2018-12-27T18:51:39.114Z,13.20
2018-12-27T18:54:05.774Z,12.27
2018-12-27T18:56:33.178Z,13.06
2018-12-27T18:58:59.202Z,13.23
2018-12-27T19:01:25.374Z,13.33
2018-12-27T19:03:51.515Z,13.27
2018-12-27T19:06:18.806Z,13.30
2018-12-27T19:08:44.982Z,13.12
2018-12-27T19:11:11.630Z,13.12
2018-12-27T19:13:37.736Z,13.13
2018-12-27T19:16:04.061Z,13.22
2018-12-27T19:18:30.689Z,13.27
2018-12-27T19:20:58.935Z,13.23
2018-12-27T19:23:24.618Z,13.32
2018-12-27T19:25:51.149Z,13.36
2018-12-27T19:28:17.286Z,13.42
2018-12-27T19:30:43.366Z,13.53
2018-12-27T19:33:09.766Z,13.41
2018-12-27T19:35:36.221Z,13.36
2018-12-27T19:38:04.901Z,13.17
2018-12-27T19:40:30.990Z,13.33
2018-12-27T19:42:57.148Z,13.31
2018-12-27T19:45:23.312Z,13.16
2018-12-27T19:47:49.403Z,13.14
2018-12-27T19:50:15.583Z,13.15
2018-12-27T19:52:41.983Z,13.14
2018-12-27T19:55:08.041Z,13.16
2018-12-27T19:57:34.055Z,13.14
2018-12-27T20:00:00.348Z,13.23
2018-12-27T20:02:26.747Z,13.12
2018-12-27T20:04:53.164Z,13.21
2018-12-27T20:07:19.210Z,13.21
2018-12-27T20:09:45.465Z,13.10
2018-12-27T20:12:12.183Z,13.17
2018-12-27T20:14:38.311Z,13.06
2018-12-27T20:17:04.714Z,13.08
2018-12-27T20:19:30.869Z,12.96
2018-12-27T20:21:57.385Z,13.07
2018-12-27T20:24:23.781Z,13.03
2018-12-27T20:26:50.148Z,12.95
2018-12-27T20:29:16.276Z,12.97
2018-12-27T20:31:42.367Z,12.82
2018-12-27T20:34:08.517Z,12.91
2018-12-27T20:36:34.619Z,12.84
2018-12-27T20:39:00.748Z,12.75
2018-12-27T20:41:26.922Z,12.83
2018-12-27T20:43:53.110Z,12.72
2018-12-27T20:46:19.551Z,12.75
2018-12-27T20:48:45.689Z,12.83
2018-12-27T20:51:11.805Z,12.89
2018-12-27T20:53:38.243Z,12.96
2018-12-27T20:56:04.610Z,12.81
2018-12-27T20:58:30.780Z,12.79
2018-12-27T21:00:56.882Z,12.95
2018-12-27T21:03:23.033Z,12.89
2018-12-27T21:05:49.149Z,12.79
2018-12-27T21:08:15.240Z,12.96
2018-12-27T21:10:41.826Z,12.87
2018-12-27T21:13:08.211Z,13.11
2018-12-27T21:15:34.293Z,13.07
2018-12-27T21:18:00.669Z,12.96
2018-12-27T21:20:27.364Z,12.95
2018-12-27T21:22:54.658Z,13.02
2018-12-27T21:25:20.879Z,13.20
2018-12-27T21:27:47.479Z,13.22
2018-12-27T21:30:15.762Z,13.07
2018-12-27T21:32:42.196Z,13.13
2018-12-27T21:35:08.804Z,13.11
2018-12-27T21:37:35.711Z,13.11
2018-12-27T21:40:02.019Z,13.20
2018-12-27T21:42:28.301Z,13.21
2018-12-27T21:44:54.435Z,13.18
2018-12-27T21:47:23.625Z,13.26
2018-12-27T21:49:49.854Z,13.30
2018-12-27T21:52:16.008Z,13.05
2018-12-27T21:54:42.439Z,13.08
2018-12-27T21:57:08.497Z,13.07
2018-12-27T21:59:34.588Z,13.07
2018-12-27T22:02:01.017Z,13.20
2018-12-27T22:04:27.443Z,13.15
2018-12-27T22:06:53.882Z,13.21
2018-12-27T22:09:20.302Z,13.25
2018-12-27T22:11:46.679Z,13.21
2018-12-27T22:14:13.087Z,13.25
2018-12-27T22:16:39.198Z,13.22
2018-12-27T22:19:05.279Z,13.39
2018-12-27T22:21:31.346Z,13.41
2018-12-27T22:23:57.393Z,13.45
2018-12-27T22:26:23.485Z,13.43
2018-12-27T22:28:49.566Z,13.22
2018-12-27T22:31:15.683Z,13.23
2018-12-27T22:33:41.792Z,13.26
2018-12-27T22:36:08.117Z,13.22
2018-12-27T22:38:35.736Z,13.24
2018-12-27T22:41:02.407Z,13.26
2018-12-27T22:43:28.751Z,13.13
2018-12-27T22:45:54.830Z,13.18
2018-12-27T22:48:21.400Z,13.40
2018-12-27T22:50:47.480Z,13.38
2018-12-27T22:53:13.571Z,13.29
2018-12-27T22:55:39.618Z,13.30
2018-12-27T22:58:05.717Z,13.21
2018-12-27T23:00:32.149Z,13.24
2018-12-27T23:02:59.611Z,13.31
2018-12-27T23:05:25.770Z,13.25
2018-12-27T23:07:51.913Z,13.20
2018-12-27T23:10:18.275Z,13.16
2018-12-27T23:12:44.377Z,13.13
2018-12-27T23:15:10.706Z,13.28
2018-12-27T23:17:37.028Z,13.24
2018-12-27T23:20:03.076Z,13.22
2018-12-27T23:22:29.103Z,13.31
2018-12-27T23:24:55.555Z,13.37
2018-12-27T23:27:21.661Z,13.44
2018-12-27T23:29:47.726Z,13.63
2018-12-27T23:32:13.786Z,13.58
2018-12-27T23:34:39.898Z,13.47
2018-12-27T23:37:06.409Z,13.57
2018-12-27T23:39:32.482Z,13.48
2018-12-27T23:41:59.070Z,13.44
2018-12-27T23:44:25.169Z,13.53
2018-12-27T23:46:51.273Z,13.57
2018-12-27T23:49:17.367Z,13.47
2018-12-27T23:51:43.445Z,13.45
2018-12-27T23:54:09.789Z,13.31
2018-12-27T23:56:35.897Z,13.38
2018-12-27T23:59:01.918Z,13.41
